sensor_id;sensor_type;location;lat;lon;timestamp;temperature;humidity
14775;DHT22;7479;47.042;15.160;2024-03-29T06:15:39;3.70;99.90
14775;DHT22;7479;47.042;15.160;2024-03-29T06:29:16;4.30;99.90
14775;DHT22;7479;47.042;15.160;2024-03-29T06:42:49;4.60;99.90
14775;DHT22;7479;47.042;15.160;2024-03-29T06:57:10;5.00;99.90
14775;DHT22;7479;47.042;15.160;2024-03-29T07:02:06;5.40;99.90
14775;DHT22;7479;47.042;15.160;2024-03-29T07:06:59;5.90;99.90
14775;DHT22;7479;47.042;15.160;2024-03-29T07:11:52;6.50;99.90
14775;DHT22;7479;47.042;15.160;2024-03-29T07:16:47;6.90;99.90
14775;DHT22;7479;47.042;15.160;2024-03-29T07:21:40;7.00;99.90
14775;DHT22;7479;47.042;15.160;2024-03-29T07:26:34;7.10;99.90
14775;DHT22;7479;47.042;15.160;2024-03-29T07:31:27;7.30;99.90
14775;DHT22;7479;47.042;15.160;2024-03-29T07:36:22;7.50;99.90
14775;DHT22;7479;47.042;15.160;2024-03-29T07:41:17;7.60;99.90
14775;DHT22;7479;47.042;15.160;2024-03-29T07:46:10;7.70;99.90
14775;DHT22;7479;47.042;15.160;2024-03-29T07:51:03;7.60;99.90
14775;DHT22;7479;47.042;15.160;2024-03-29T07:55:58;7.60;99.90
14775;DHT22;7479;47.042;15.160;2024-03-29T08:00:52;7.80;99.90
14775;DHT22;7479;47.042;15.160;2024-03-29T08:05:56;8.00;99.90
14775;DHT22;7479;47.042;15.160;2024-03-29T08:10:48;8.40;99.90
14775;DHT22;7479;47.042;15.160;2024-03-29T08:15:43;8.60;99.90
14775;DHT22;7479;47.042;15.160;2024-03-29T08:20:36;8.50;99.90
14775;DHT22;7479;47.042;15.160;2024-03-29T08:25:29;8.70;99.90
14775;DHT22;7479;47.042;15.160;2024-03-29T08:30:22;8.90;99.90
14775;DHT22;7479;47.042;15.160;2024-03-29T08:35:16;9.10;99.90
14775;DHT22;7479;47.042;15.160;2024-03-29T08:40:10;9.40;99.90
14775;DHT22;7479;47.042;15.160;2024-03-29T08:45:04;9.60;99.90
14775;DHT22;7479;47.042;15.160;2024-03-29T08:49:59;9.90;99.90
14775;DHT22;7479;47.042;15.160;2024-03-29T08:54:56;10.20;99.90
14775;DHT22;7479;47.042;15.160;2024-03-29T08:59:49;10.50;99.90
14775;DHT22;7479;47.042;15.160;2024-03-29T09:04:41;10.90;99.90
14775;DHT22;7479;47.042;15.160;2024-03-29T09:09:34;11.30;99.90
14775;DHT22;7479;47.042;15.160;2024-03-29T09:14:30;11.50;99.90
14775;DHT22;7479;47.042;15.160;2024-03-29T09:19:23;11.90;99.90
14775;DHT22;7479;47.042;15.160;2024-03-29T09:24:16;12.20;99.90
14775;DHT22;7479;47.042;15.160;2024-03-29T09:29:09;12.50;99.90
14775;DHT22;7479;47.042;15.160;2024-03-29T09:34:05;12.50;99.90
14775;DHT22;7479;47.042;15.160;2024-03-29T09:38:58;12.30;99.90
14775;DHT22;7479;47.042;15.160;2024-03-29T09:43:52;11.90;99.90
14775;DHT22;7479;47.042;15.160;2024-03-29T09:48:46;11.70;99.90
14775;DHT22;7479;47.042;15.160;2024-03-29T09:53:42;11.80;99.90
14775;DHT22;7479;47.042;15.160;2024-03-29T09:58:36;11.80;99.90
14775;DHT22;7479;47.042;15.160;2024-03-29T10:03:30;11.90;99.90
14775;DHT22;7479;47.042;15.160;2024-03-29T10:08:24;12.10;99.90
14775;DHT22;7479;47.042;15.160;2024-03-29T10:13:19;12.20;99.90
14775;DHT22;7479;47.042;15.160;2024-03-29T10:18:12;12.30;99.90
14775;DHT22;7479;47.042;15.160;2024-03-29T10:23:05;12.30;99.90
14775;DHT22;7479;47.042;15.160;2024-03-29T10:27:59;12.50;99.90
14775;DHT22;7479;47.042;15.160;2024-03-29T10:32:55;12.60;99.90
14775;DHT22;7479;47.042;15.160;2024-03-29T10:37:48;12.70;99.90
14775;DHT22;7479;47.042;15.160;2024-03-29T10:42:41;12.80;99.90
14775;DHT22;7479;47.042;15.160;2024-03-29T10:47:36;12.90;99.90
14775;DHT22;7479;47.042;15.160;2024-03-29T10:52:32;13.10;99.90
14775;DHT22;7479;47.042;15.160;2024-03-29T10:57:27;13.20;99.90
14775;DHT22;7479;47.042;15.160;2024-03-29T11:02:26;13.30;99.90
14775;DHT22;7479;47.042;15.160;2024-03-29T11:07:21;13.60;99.90
14775;DHT22;7479;47.042;15.160;2024-03-29T11:12:17;13.80;99.90
14775;DHT22;7479;47.042;15.160;2024-03-29T11:17:13;13.90;99.90
14775;DHT22;7479;47.042;15.160;2024-03-29T11:22:06;13.90;99.90
14775;DHT22;7479;47.042;15.160;2024-03-29T11:27:08;13.90;99.90
14775;DHT22;7479;47.042;15.160;2024-03-29T11:32:04;14.00;99.90
14775;DHT22;7479;47.042;15.160;2024-03-29T11:37:06;14.10;99.90
14775;DHT22;7479;47.042;15.160;2024-03-29T11:42:01;14.10;99.90
14775;DHT22;7479;47.042;15.160;2024-03-29T11:46:58;14.00;99.90
14775;DHT22;7479;47.042;15.160;2024-03-29T11:52:02;14.00;99.90
14775;DHT22;7479;47.042;15.160;2024-03-29T11:56:57;13.90;99.90
14775;DHT22;7479;47.042;15.160;2024-03-29T12:01:51;13.80;99.90
14775;DHT22;7479;47.042;15.160;2024-03-29T12:06:46;13.60;99.90
14775;DHT22;7479;47.042;15.160;2024-03-29T12:11:43;13.30;99.90
14775;DHT22;7479;47.042;15.160;2024-03-29T12:16:43;13.30;99.90
14775;DHT22;7479;47.042;15.160;2024-03-29T12:21:36;13.50;99.90
14775;DHT22;7479;47.042;15.160;2024-03-29T12:26:29;13.70;99.90
14775;DHT22;7479;47.042;15.160;2024-03-29T12:31:24;13.80;99.90
14775;DHT22;7479;47.042;15.160;2024-03-29T12:36:17;14.10;99.90
14775;DHT22;7479;47.042;15.160;2024-03-29T12:41:11;14.30;99.90
14775;DHT22;7479;47.042;15.160;2024-03-29T12:46:04;14.30;99.90
14775;DHT22;7479;47.042;15.160;2024-03-29T12:50:59;14.40;99.90
14775;DHT22;7479;47.042;15.160;2024-03-29T12:55:54;14.40;99.90
14775;DHT22;7479;47.042;15.160;2024-03-29T13:00:46;14.40;99.90
14775;DHT22;7479;47.042;15.160;2024-03-29T13:05:40;14.40;99.90
14775;DHT22;7479;47.042;15.160;2024-03-29T13:10:34;14.50;99.90
14775;DHT22;7479;47.042;15.160;2024-03-29T13:15:28;14.70;99.90
14775;DHT22;7479;47.042;15.160;2024-03-29T13:20:23;14.70;99.90
14775;DHT22;7479;47.042;15.160;2024-03-29T13:25:17;14.60;99.90
14775;DHT22;7479;47.042;15.160;2024-03-29T13:30:12;14.70;99.90
14775;DHT22;7479;47.042;15.160;2024-03-29T13:35:06;14.80;99.90
14775;DHT22;7479;47.042;15.160;2024-03-29T13:40:00;14.90;99.90
14775;DHT22;7479;47.042;15.160;2024-03-29T13:44:55;14.90;99.90
14775;DHT22;7479;47.042;15.160;2024-03-29T13:49:49;15.10;99.90
14775;DHT22;7479;47.042;15.160;2024-03-29T13:54:44;15.10;99.90
14775;DHT22;7479;47.042;15.160;2024-03-29T13:59:37;15.00;99.90
14775;DHT22;7479;47.042;15.160;2024-03-29T14:04:30;15.10;99.90
14775;DHT22;7479;47.042;15.160;2024-03-29T14:09:25;15.20;99.90
14775;DHT22;7479;47.042;15.160;2024-03-29T14:14:17;15.30;99.90
14775;DHT22;7479;47.042;15.160;2024-03-29T14:19:10;15.30;99.90
14775;DHT22;7479;47.042;15.160;2024-03-29T14:24:03;15.20;99.90
14775;DHT22;7479;47.042;15.160;2024-03-29T14:28:58;15.20;99.90
14775;DHT22;7479;47.042;15.160;2024-03-29T14:33:51;15.40;99.90
14775;DHT22;7479;47.042;15.160;2024-03-29T14:38:44;15.60;99.90
14775;DHT22;7479;47.042;15.160;2024-03-29T14:43:37;15.80;99.90
14775;DHT22;7479;47.042;15.160;2024-03-29T14:48:31;15.90;99.90
14775;DHT22;7479;47.042;15.160;2024-03-29T14:53:24;15.70;99.90
14775;DHT22;7479;47.042;15.160;2024-03-29T14:58:17;15.60;99.90
14775;DHT22;7479;47.042;15.160;2024-03-29T15:03:10;15.70;99.90
14775;DHT22;7479;47.042;15.160;2024-03-29T15:08:06;16.00;99.90
14775;DHT22;7479;47.042;15.160;2024-03-29T15:12:59;16.00;99.90
14775;DHT22;7479;47.042;15.160;2024-03-29T15:17:52;15.90;99.90
14775;DHT22;7479;47.042;15.160;2024-03-29T15:22:45;15.90;99.90
14775;DHT22;7479;47.042;15.160;2024-03-29T15:27:42;16.10;99.90
14775;DHT22;7479;47.042;15.160;2024-03-29T15:32:53;16.20;99.90
14775;DHT22;7479;47.042;15.160;2024-03-29T15:37:45;16.10;99.90
14775;DHT22;7479;47.042;15.160;2024-03-29T15:42:39;16.00;99.90
14775;DHT22;7479;47.042;15.160;2024-03-29T15:47:34;15.90;99.90
14775;DHT22;7479;47.042;15.160;2024-03-29T15:52:27;16.60;99.90
14775;DHT22;7479;47.042;15.160;2024-03-29T15:57:19;17.10;99.90
14775;DHT22;7479;47.042;15.160;2024-03-29T16:02:12;17.10;99.90
14775;DHT22;7479;47.042;15.160;2024-03-29T16:07:07;17.00;99.90
14775;DHT22;7479;47.042;15.160;2024-03-29T16:12:01;16.60;99.90
14775;DHT22;7479;47.042;15.160;2024-03-29T16:16:54;16.30;99.90
14775;DHT22;7479;47.042;15.160;2024-03-29T16:21:47;16.10;99.90
14775;DHT22;7479;47.042;15.160;2024-03-29T16:26:42;16.00;99.90
14775;DHT22;7479;47.042;15.160;2024-03-29T16:31:35;15.90;99.90
14775;DHT22;7479;47.042;15.160;2024-03-29T16:36:28;15.90;99.90
14775;DHT22;7479;47.042;15.160;2024-03-29T16:41:21;15.80;99.90
14775;DHT22;7479;47.042;15.160;2024-03-29T16:46:16;15.70;99.90
14775;DHT22;7479;47.042;15.160;2024-03-29T16:51:08;15.50;99.90
14775;DHT22;7479;47.042;15.160;2024-03-29T16:56:01;15.40;99.90
14775;DHT22;7479;47.042;15.160;2024-03-29T17:00:54;15.10;99.90
14775;DHT22;7479;47.042;15.160;2024-03-29T17:05:48;14.90;99.90
14775;DHT22;7479;47.042;15.160;2024-03-29T17:10:41;14.60;99.90
14775;DHT22;7479;47.042;15.160;2024-03-29T17:15:34;14.40;99.90
14775;DHT22;7479;47.042;15.160;2024-03-29T17:20:26;14.30;99.90
14775;DHT22;7479;47.042;15.160;2024-03-29T17:25:21;14.20;99.90
